Terminal Aerodrome Forecast
Issued by NWS

Home | Current Version | Previous Version | Text Only | Print | Product List | Glossary On
Versions: 1 2 3 4 5 6 7 8 9 10 11 12 13 14 15 16 17 18 19
000
FTUS41 KPBZ 010530
TAFMGW
TAF
KMGW 010530Z 0106/0206 22005KT P6SM BKN090
     FM011700 26008G12KT P6SM BKN060
     FM020000 26003KT P6SM SCT100=

USA.gov is the U.S. government's official web portal to all federal, state and local government web resources and services.